Time;durP1;ratioP1;P1;durP2;ratioP2;P2;SDS_P1;SDS_P2;PMS_P1;PMS_P2;Temp;Humidity;BMP_temperature;BMP_pressure;BME280_temperature;BME280_humidity;BME280_pressure;Samples;Min_cycle;Max_cycle;Signal;HPM_P1;HPM_P2
2021/06/30 00:01:03;;;;;;;14.27;11.80;;;;;;;25.54;34.70;101807.63;5012592;28;20069;-76
2021/06/30 00:03:29;;;;;;;14.43;12.73;;;;;;;25.47;34.35;101811.22;5012637;28;20026;-76
2021/06/30 00:05:55;;;;;;;13.80;11.15;;;;;;;25.42;34.67;101801.19;5012561;28;20101;-75
2021/06/30 00:08:20;;;;;;;13.20;11.25;;;;;;;25.36;34.27;101811.13;5012575;28;20060;-75
2021/06/30 00:10:46;;;;;;;13.68;11.15;;;;;;;25.36;34.64;101808.31;4997033;28;20112;-76
2021/06/30 00:13:12;;;;;;;12.52;11.15;;;;;;;25.32;34.35;101810.31;4996187;28;20033;-77
2021/06/30 00:15:41;;;;;;;13.38;10.98;;;;;;;25.26;34.75;101813.84;4996478;28;20029;-76
2021/06/30 00:18:08;;;;;;;13.80;10.27;;;;;;;25.20;34.81;101802.22;4997259;28;20101;-76
2021/06/30 00:20:35;;;;;;;12.55;10.95;;;;;;;25.19;34.45;101797.81;4996347;28;20096;-77
2021/06/30 00:23:01;;;;;;;11.20;10.13;;;;;;;25.18;34.79;101802.59;4995726;28;20026;-76
2021/06/30 00:25:26;;;;;;;13.77;9.93;;;;;;;25.16;34.57;101801.38;4994778;28;20465;-76
2021/06/30 00:27:52;;;;;;;12.05;9.82;;;;;;;25.09;34.54;101810.53;4978742;28;20022;-77
2021/06/30 00:30:19;;;;;;;12.32;10.75;;;;;;;25.09;34.38;101809.69;5012618;28;20433;-76
2021/06/30 00:32:45;;;;;;;12.27;10.82;;;;;;;25.01;34.65;101797.63;4995160;28;20018;-76
2021/06/30 00:35:15;;;;;;;13.13;10.05;;;;;;;24.96;34.68;101806.38;4996623;28;20050;-76
2021/06/30 00:37:41;;;;;;;14.82;10.85;;;;;;;24.92;34.95;101805.53;4996563;28;20080;-76
2021/06/30 00:40:09;;;;;;;13.35;10.13;;;;;;;24.79;34.95;101802.25;4994993;28;20042;-76
2021/06/30 00:42:35;;;;;;;10.00;9.00;;;;;;;24.65;34.94;101802.09;4996136;28;20030;-76
2021/06/30 00:45:01;;;;;;;10.90;9.90;;;;;;;24.55;35.14;101799.97;4997002;28;20073;-76
2021/06/30 00:47:27;;;;;;;12.40;9.98;;;;;;;24.58;35.27;101796.44;4996336;28;20396;-76
2021/06/30 00:49:53;;;;;;;12.80;10.25;;;;;;;24.55;35.11;101803.56;4997514;28;20083;-76
2021/06/30 00:52:18;;;;;;;16.27;9.48;;;;;;;24.50;35.02;101800.34;4999202;28;20033;-77
2021/06/30 00:54:44;;;;;;;12.30;8.55;;;;;;;24.47;35.29;101801.09;4999533;28;20030;-76
2021/06/30 00:57:10;;;;;;;12.52;9.00;;;;;;;24.44;35.20;101804.66;4998959;28;20072;-76
2021/06/30 00:59:37;;;;;;;10.88;9.38;;;;;;;24.44;35.38;101804.66;4997995;28;20049;-76
2021/06/30 01:02:03;;;;;;;12.77;8.60;;;;;;;24.43;35.33;101808.63;5007389;28;20030;-75
2021/06/30 01:04:29;;;;;;;10.20;9.10;;;;;;;24.39;35.14;101808.59;5015606;28;20060;-75
2021/06/30 01:06:54;;;;;;;10.98;9.02;;;;;;;24.34;35.38;101806.97;5015475;28;20068;-76
2021/06/30 01:09:20;;;;;;;11.07;8.20;;;;;;;24.33;35.49;101813.72;5015533;28;20034;-75
2021/06/30 01:11:46;;;;;;;12.38;8.55;;;;;;;24.32;35.54;101806.50;5015442;28;20033;-75
2021/06/30 01:14:32;;;;;;;13.30;8.60;;;;;;;24.33;35.22;101801.72;5015395;28;20080;-76
2021/06/30 01:17:00;;;;;;;12.75;9.50;;;;;;;24.29;35.18;101812.84;5015360;28;20083;-75
2021/06/30 01:19:29;;;;;;;10.93;8.40;;;;;;;24.31;35.13;101809.66;5015582;28;20430;-76
2021/06/30 01:21:55;;;;;;;13.10;9.05;;;;;;;24.31;35.37;101810.47;5015282;28;20034;-76
2021/06/30 01:24:21;;;;;;;12.80;9.65;;;;;;;24.30;35.21;101808.06;5005493;28;20157;-75
2021/06/30 01:26:49;;;;;;;12.82;9.55;;;;;;;24.29;35.15;101806.44;5003633;28;20064;-75
2021/06/30 01:29:16;;;;;;;13.82;9.90;;;;;;;24.33;35.14;101804.53;5000722;28;20825;-76
2021/06/30 01:31:41;;;;;;;10.52;8.95;;;;;;;24.29;34.96;101812.84;4997033;28;20030;-76
2021/06/30 01:34:07;;;;;;;9.93;7.97;;;;;;;24.20;35.09;101809.56;4998693;28;20747;-75
2021/06/30 01:36:48;;;;;;;11.15;8.95;;;;;;;24.14;35.17;101801.88;5009685;28;20083;-76
2021/06/30 01:39:15;;;;;;;9.95;7.93;;;;;;;24.14;35.30;101811.06;5001446;28;20046;-76
2021/06/30 01:41:41;;;;;;;13.02;9.18;;;;;;;24.12;34.99;101809.84;5011462;28;20037;-77
2021/06/30 01:44:08;;;;;;;9.23;7.47;;;;;;;24.02;35.38;101805.72;5006531;28;20121;-76
2021/06/30 01:46:34;;;;;;;8.93;7.57;;;;;;;24.05;35.25;101807.75;5004940;28;20045;-76
2021/06/30 01:49:00;;;;;;;12.15;8.35;;;;;;;24.06;35.43;101804.59;5002995;28;20026;-76
2021/06/30 01:51:26;;;;;;;10.80;7.70;;;;;;;24.05;35.29;101813.34;5004118;28;20033;-76
2021/06/30 01:54:00;;;;;;;11.40;8.75;;;;;;;24.03;35.23;101807.31;5004555;28;20072;-77
2021/06/30 01:56:28;;;;;;;10.20;7.75;;;;;;;24.02;34.91;101803.72;5000402;28;20108;-76
2021/06/30 01:59:06;;;;;;;9.60;7.78;;;;;;;24.02;35.24;101808.50;5001767;28;20034;-77
2021/06/30 02:01:32;;;;;;;8.90;7.95;;;;;;;24.04;35.01;101808.94;5000025;28;20022;-76
2021/06/30 02:03:59;;;;;;;8.73;7.85;;;;;;;24.04;34.91;101811.75;5000171;28;20113;-76
2021/06/30 02:06:27;;;;;;;9.75;7.25;;;;;;;24.05;35.11;101804.97;5003586;28;20042;-76
2021/06/30 02:08:56;;;;;;;10.75;7.82;;;;;;;24.00;34.95;101797.72;5004002;28;20030;-77
2021/06/30 02:11:22;;;;;;;13.20;7.15;;;;;;;23.99;35.06;101798.09;4999788;28;20038;-76
2021/06/30 02:13:48;;;;;;;9.13;8.23;;;;;;;23.89;35.23;101799.59;5003183;28;20032;-77
2021/06/30 02:16:14;;;;;;;12.40;8.32;;;;;;;23.85;35.08;101800.72;5004100;28;20377;-76
2021/06/30 02:18:40;;;;;;;9.73;8.13;;;;;;;23.87;34.98;101807.50;5002258;28;20030;-76
2021/06/30 02:21:05;;;;;;;10.35;8.45;;;;;;;23.82;35.18;101804.28;5003345;28;20163;-76
2021/06/30 02:23:32;;;;;;;9.27;8.25;;;;;;;23.80;35.39;101808.25;5002382;28;20030;-77
2021/06/30 02:25:57;;;;;;;11.13;8.35;;;;;;;23.74;35.16;101818.13;5001704;28;20532;-75
2021/06/30 02:28:23;;;;;;;8.68;7.72;;;;;;;23.76;35.21;101812.97;5002436;28;20030;-76
2021/06/30 02:30:49;;;;;;;11.98;8.25;;;;;;;23.75;35.42;101810.56;5002826;28;20022;-76
2021/06/30 02:33:15;;;;;;;11.60;8.50;;;;;;;23.73;35.35;101804.56;5003913;28;20473;-76
2021/06/30 02:35:41;;;;;;;9.40;8.10;;;;;;;23.68;35.53;101811.25;5005199;28;20117;-76
2021/06/30 02:38:07;;;;;;;9.30;7.65;;;;;;;23.62;35.67;101806.38;5022632;28;20099;-76
2021/06/30 02:40:34;;;;;;;9.85;8.73;;;;;;;23.59;35.28;101807.91;5023148;28;20034;-75
2021/06/30 02:43:00;;;;;;;10.50;8.45;;;;;;;23.45;35.79;101811.28;5021363;28;20423;-76
2021/06/30 02:45:26;;;;;;;12.90;8.50;;;;;;;23.49;35.72;101805.75;5022697;28;20076;-76
2021/06/30 02:47:52;;;;;;;15.55;8.88;;;;;;;23.48;35.54;101806.94;5022965;28;20022;-76
2021/06/30 02:50:18;;;;;;;10.40;8.38;;;;;;;23.51;35.58;101809.78;5021199;28;20547;-76
2021/06/30 02:52:46;;;;;;;11.63;9.23;;;;;;;23.43;35.82;101812.84;5022757;28;20033;-76
2021/06/30 02:55:12;;;;;;;11.88;9.32;;;;;;;23.41;35.94;101804.84;5013452;28;20025;-76
2021/06/30 02:57:38;;;;;;;10.15;8.23;;;;;;;23.33;35.99;101807.88;4998028;28;20061;-76
2021/06/30 03:00:13;;;;;;;12.52;8.90;;;;;;;23.32;36.10;101811.88;4997024;28;20465;-77
2021/06/30 03:02:39;;;;;;;12.40;8.85;;;;;;;23.18;36.08;101810.44;4996676;28;20029;-76
2021/06/30 03:05:06;;;;;;;12.30;8.93;;;;;;;23.19;36.17;101811.25;4996458;28;20037;-76
2021/06/30 03:07:32;;;;;;;12.30;8.73;;;;;;;23.17;36.28;101827.56;4997325;28;20030;-76
2021/06/30 03:09:58;;;;;;;12.40;7.90;;;;;;;23.21;36.23;101826.44;4997083;28;20022;-76
2021/06/30 03:12:23;;;;;;;13.05;8.65;;;;;;;23.22;36.23;101825.25;4993240;28;20041;-76
2021/06/30 03:14:49;;;;;;;10.23;8.60;;;;;;;23.27;36.11;101810.19;4993279;28;20030;-76
2021/06/30 03:17:14;;;;;;;10.25;8.25;;;;;;;23.27;36.12;101812.97;5009326;28;20096;-76
2021/06/30 03:19:40;;;;;;;9.45;8.00;;;;;;;23.31;36.00;101818.63;4993384;28;20451;-76
2021/06/30 03:22:06;;;;;;;9.68;8.48;;;;;;;23.32;35.79;101821.03;4992751;28;20046;-76
2021/06/30 03:24:32;;;;;;;13.32;8.70;;;;;;;23.31;35.75;101827.00;4993096;28;20128;-76
2021/06/30 03:26:58;;;;;;;19.10;9.68;;;;;;;23.30;35.72;101820.59;4994827;28;20171;-77
2021/06/30 03:29:24;;;;;;;19.10;9.50;;;;;;;23.15;35.71;101816.78;4996463;28;20022;-77
2021/06/30 03:31:49;;;;;;;11.32;8.45;;;;;;;23.11;35.57;101815.09;4994883;28;20400;-77
2021/06/30 03:34:15;;;;;;;14.07;7.88;;;;;;;23.06;35.59;101816.25;4995304;28;20131;-77
2021/06/30 03:36:41;;;;;;;15.57;8.50;;;;;;;23.03;35.81;101808.59;4994414;28;20053;-76
2021/06/30 03:39:07;;;;;;;15.52;8.73;;;;;;;22.95;35.92;101816.03;5010706;28;20030;-77
2021/06/30 03:41:32;;;;;;;9.77;7.35;;;;;;;22.97;35.91;101810.91;5012019;28;20030;-76
2021/06/30 03:43:58;;;;;;;9.23;7.68;;;;;;;23.01;35.88;101808.19;5027244;28;20053;-76
2021/06/30 03:46:23;;;;;;;11.57;7.53;;;;;;;23.00;35.93;101801.00;5012081;28;20033;-76
2021/06/30 03:48:49;;;;;;;14.90;8.73;;;;;;;22.99;36.06;101804.97;5012019;28;20183;-76
2021/06/30 03:51:14;;;;;;;10.70;7.75;;;;;;;22.96;36.20;101806.50;5002694;28;20460;-77
2021/06/30 03:53:40;;;;;;;9.93;7.95;;;;;;;23.02;35.88;101811.75;4996088;28;20032;-77
2021/06/30 03:56:06;;;;;;;11.57;7.70;;;;;;;23.05;35.77;101806.25;4994602;28;21064;-76
2021/06/30 03:58:32;;;;;;;11.27;7.90;;;;;;;23.05;36.16;101803.47;4978105;28;20032;-77
2021/06/30 04:00:58;;;;;;;11.68;8.05;;;;;;;23.11;36.00;101796.38;4995359;28;20092;-77
2021/06/30 04:03:24;;;;;;;16.50;8.57;;;;;;;23.22;36.14;101805.75;4995019;28;20060;-76
2021/06/30 04:05:49;;;;;;;13.07;8.43;;;;;;;23.25;36.21;101799.41;4995089;28;20030;-77
2021/06/30 04:08:15;;;;;;;10.25;7.53;;;;;;;23.33;36.04;101803.13;4993929;28;20029;-76
2021/06/30 04:10:41;;;;;;;13.60;7.50;;;;;;;23.36;36.14;101805.19;4994284;28;20022;-76
2021/06/30 04:13:08;;;;;;;9.95;7.28;;;;;;;23.44;36.16;101806.88;5008320;28;20021;-76
2021/06/30 04:15:34;;;;;;;13.90;7.47;;;;;;;23.48;36.15;101795.78;5011768;28;20033;-76
2021/06/30 04:18:04;;;;;;;11.82;7.90;;;;;;;23.52;36.39;101802.22;5012041;28;20029;-76
2021/06/30 04:20:30;;;;;;;14.77;8.98;;;;;;;23.66;36.28;101805.25;5011600;28;20034;-76
2021/06/30 04:22:55;;;;;;;12.05;8.27;;;;;;;23.68;36.27;101800.09;5011665;28;20029;-76
2021/06/30 04:25:21;;;;;;;10.60;8.77;;;;;;;23.81;36.47;101803.47;5013909;28;20022;-76
2021/06/30 04:27:46;;;;;;;13.35;8.68;;;;;;;23.84;36.34;101802.69;5015559;28;20084;-77
2021/06/30 04:30:12;;;;;;;13.82;7.40;;;;;;;23.90;36.66;101805.97;5030720;28;20029;-76
2021/06/30 04:32:38;;;;;;;13.38;7.80;;;;;;;23.90;36.75;101805.97;5015429;28;20488;-76
2021/06/30 04:35:08;;;;;;;13.85;8.15;;;;;;;23.91;36.76;101818.75;5015576;28;20369;-76
2021/06/30 04:37:34;;;;;;;11.70;8.82;;;;;;;24.04;36.57;101811.75;4997346;28;20485;-76
2021/06/30 04:40:01;;;;;;;10.68;7.95;;;;;;;24.05;36.55;101810.56;5030423;28;20084;-76
2021/06/30 04:42:27;;;;;;;12.07;8.75;;;;;;;24.16;36.41;101803.09;5015621;28;20038;-76
2021/06/30 04:44:53;;;;;;;9.88;8.15;;;;;;;24.05;36.84;101807.75;5015225;28;20508;-76
2021/06/30 04:47:18;;;;;;;11.25;8.60;;;;;;;24.17;36.92;101799.13;5030301;28;20041;-74
2021/06/30 04:49:44;;;;;;;11.45;8.88;;;;;;;24.16;36.49;101794.72;5015167;28;20083;-75
2021/06/30 04:52:09;;;;;;;11.93;8.05;;;;;;;24.24;36.83;101798.41;5014942;28;20038;-75
2021/06/30 04:54:35;;;;;;;11.90;8.07;;;;;;;24.25;36.69;101809.19;5011297;28;20062;-75
2021/06/30 04:57:00;;;;;;;8.95;8.05;;;;;;;24.22;36.53;101814.75;4998274;28;20033;-75
2021/06/30 04:59:26;;;;;;;11.35;8.05;;;;;;;24.23;36.77;101819.16;5013203;28;20026;-76
2021/06/30 05:01:52;;;;;;;13.10;7.88;;;;;;;24.31;36.50;101816.03;4997382;28;20116;-75
2021/06/30 05:04:18;;;;;;;15.23;7.97;;;;;;;24.38;36.53;101814.56;4997792;28;20025;-75
2021/06/30 05:06:45;;;;;;;9.10;8.10;;;;;;;24.40;36.37;101812.97;4997961;28;20060;-75
2021/06/30 05:09:11;;;;;;;12.88;8.65;;;;;;;24.45;36.42;101815.44;4998291;28;20034;-76
2021/06/30 05:11:36;;;;;;;11.98;7.93;;;;;;;24.52;35.99;101814.72;4998081;28;20022;-76
2021/06/30 05:14:02;;;;;;;11.82;7.85;;;;;;;24.55;36.16;101816.75;4998776;28;20548;-76
2021/06/30 05:16:27;;;;;;;11.00;8.00;;;;;;;24.53;36.22;101811.53;4979481;28;20034;-77
2021/06/30 05:18:53;;;;;;;14.70;7.90;;;;;;;24.46;36.12;101817.03;4998386;28;20571;-75
2021/06/30 05:21:21;;;;;;;8.82;7.22;;;;;;;24.48;36.48;101823.03;5010286;28;20033;-76
2021/06/30 05:23:47;;;;;;;10.68;7.70;;;;;;;24.45;36.24;101829.41;5010644;28;20021;-75
2021/06/30 05:26:12;;;;;;;12.05;8.82;;;;;;;24.59;35.82;101825.97;4997177;28;20030;-75
2021/06/30 05:28:38;;;;;;;12.02;8.55;;;;;;;24.64;35.71;101836.81;5012060;28;20156;-75
2021/06/30 05:31:03;;;;;;;12.23;8.30;;;;;;;24.69;35.76;101835.66;5013575;28;20357;-75
2021/06/30 05:33:29;;;;;;;9.90;7.65;;;;;;;24.63;35.85;101833.19;5014272;28;20388;-75
2021/06/30 05:35:55;;;;;;;11.43;7.55;;;;;;;24.50;35.98;101825.47;5002660;28;20058;-74
2021/06/30 05:38:24;;;;;;;13.30;8.10;;;;;;;24.46;36.35;101844.97;4997655;28;20049;-75
2021/06/30 05:40:51;;;;;;;11.52;8.77;;;;;;;24.55;36.13;101830.72;4997314;28;20022;-75
2021/06/30 05:43:17;;;;;;;12.43;8.90;;;;;;;24.53;36.16;101833.09;4997242;28;20049;-77
2021/06/30 05:45:43;;;;;;;12.13;8.68;;;;;;;24.65;35.90;101790.91;4996144;28;20080;-74
2021/06/30 05:48:08;;;;;;;18.83;9.23;;;;;;;24.58;35.87;101821.56;4979634;28;20029;-75
2021/06/30 05:50:35;;;;;;;12.10;8.68;;;;;;;24.66;35.92;101826.06;4996291;28;20603;-75
2021/06/30 05:53:01;;;;;;;15.30;9.07;;;;;;;24.58;36.11;101830.75;4995436;28;20410;-76
2021/06/30 05:55:27;;;;;;;12.43;8.00;;;;;;;24.68;35.91;101829.25;4996671;28;20109;-75
2021/06/30 05:57:53;;;;;;;10.52;7.38;;;;;;;24.79;35.87;101832.97;4998065;28;20104;-74
2021/06/30 06:00:20;;;;;;;13.52;7.90;;;;;;;24.57;36.28;101833.94;4997062;28;20040;-75
2021/06/30 06:02:47;;;;;;;10.30;9.15;;;;;;;24.73;36.00;101837.31;4996073;28;20022;-75
2021/06/30 06:05:12;;;;;;;12.27;8.95;;;;;;;24.76;36.01;101836.53;4997752;28;20032;-75
2021/06/30 06:07:38;;;;;;;12.00;8.93;;;;;;;24.75;35.68;101832.13;4997913;28;20018;-75
2021/06/30 06:10:05;;;;;;;10.25;8.15;;;;;;;24.87;35.74;101833.84;4998623;28;20029;-75
2021/06/30 06:12:31;;;;;;;10.73;7.53;;;;;;;24.92;35.82;101828.69;4998141;28;20141;-75
2021/06/30 06:14:57;;;;;;;8.38;7.30;;;;;;;24.88;35.92;101827.88;4997448;28;20069;-75
2021/06/30 06:17:23;;;;;;;8.70;7.70;;;;;;;24.91;35.80;101826.28;4997513;28;20499;-75
2021/06/30 06:19:49;;;;;;;10.45;7.45;;;;;;;24.99;35.76;101821.56;4996145;28;20026;-75
2021/06/30 06:22:14;;;;;;;11.60;7.95;;;;;;;24.90;35.40;101824.69;4997538;28;20464;-75
2021/06/30 06:24:40;;;;;;;10.07;7.63;;;;;;;24.90;35.40;101817.09;4997354;28;20017;-75
2021/06/30 06:27:10;;;;;;;10.20;7.35;;;;;;;24.76;35.93;101816.97;4996607;28;20477;-75
2021/06/30 06:29:36;;;;;;;13.43;8.48;;;;;;;25.02;35.66;101820.81;4996046;28;20133;-75
2021/06/30 06:32:03;;;;;;;12.35;7.57;;;;;;;24.93;35.87;101818.31;4997812;28;20109;-75
2021/06/30 06:34:28;;;;;;;14.95;8.65;;;;;;;25.01;35.71;101819.97;4997455;28;20038;-76
2021/06/30 06:36:55;;;;;;;9.70;8.05;;;;;;;25.12;35.40;101812.53;4997626;28;20050;-75
2021/06/30 06:39:21;;;;;;;15.63;8.57;;;;;;;25.13;35.47;101816.13;4996214;28;20026;-75
2021/06/30 06:41:48;;;;;;;29.35;9.65;;;;;;;25.12;35.67;101818.13;5010214;28;20034;-75
2021/06/30 06:44:15;;;;;;;10.98;7.43;;;;;;;25.30;35.10;101809.88;4996563;28;20742;-75
2021/06/30 06:46:41;;;;;;;10.82;8.05;;;;;;;25.28;35.21;101812.25;4996922;28;20037;-75
2021/06/30 06:49:07;;;;;;;10.38;7.88;;;;;;;25.20;35.31;101818.19;4997015;28;20030;-75
2021/06/30 06:51:38;;;;;;;10.95;7.75;;;;;;;25.26;35.25;101809.06;5010538;28;20029;-75
2021/06/30 06:54:04;;;;;;;12.70;7.88;;;;;;;25.29;34.97;101813.06;4979236;28;20025;-75
2021/06/30 06:56:31;;;;;;;9.05;7.18;;;;;;;25.36;35.13;101816.72;4996210;28;20137;-75
2021/06/30 06:58:56;;;;;;;10.13;7.55;;;;;;;25.46;34.94;101815.97;4978350;28;20538;-75
2021/06/30 07:01:22;;;;;;;10.20;7.85;;;;;;;25.55;34.56;101814.84;4997132;28;20030;-75
2021/06/30 07:03:48;;;;;;;13.13;7.80;;;;;;;25.58;34.49;101809.28;4979059;28;20088;-75
2021/06/30 07:06:14;;;;;;;13.25;7.78;;;;;;;25.53;34.72;101812.41;4996523;28;20049;-76
2021/06/30 07:08:40;;;;;;;30.15;10.70;;;;;;;25.40;34.94;101813.97;5011993;28;20116;-76
2021/06/30 07:11:08;;;;;;;19.70;13.80;;;;;;;25.59;34.51;101807.28;5013052;28;20062;-76
2021/06/30 07:13:35;;;;;;;15.80;12.75;;;;;;;25.56;34.76;101811.66;5013251;28;20045;-75
2021/06/30 07:16:01;;;;;;;12.95;7.43;;;;;;;25.55;34.91;101806.47;5018866;28;20129;-76
2021/06/30 07:18:26;;;;;;;8.75;5.82;;;;;;;25.71;34.57;101804.16;5004610;28;20113;-79
2021/06/30 07:20:52;;;;;;;11.95;7.05;;;;;;;25.70;34.18;101810.94;5005140;28;20026;-77
2021/06/30 07:23:18;;;;;;;10.43;7.47;;;;;;;25.68;34.23;101804.91;5005902;28;20034;-77
2021/06/30 07:25:43;;;;;;;9.73;6.47;;;;;;;25.77;34.33;101804.59;5013034;28;20033;-81
2021/06/30 07:28:09;;;;;;;13.93;7.72;;;;;;;25.98;33.96;101816.72;5013072;28;20030;-76
2021/06/30 07:30:35;;;;;;;10.23;6.57;;;;;;;26.08;33.67;101814.38;5012788;28;20033;-75
2021/06/30 07:33:02;;;;;;;14.30;6.93;;;;;;;26.10;33.75;101820.38;5012311;28;20120;-74
2021/06/30 07:35:28;;;;;;;10.85;6.95;;;;;;;25.99;33.78;101815.50;5007075;28;20057;-76
2021/06/30 07:37:54;;;;;;;8.68;6.18;;;;;;;26.01;33.39;101815.13;4995474;28;20681;-75
2021/06/30 07:40:19;;;;;;;12.23;6.85;;;;;;;25.81;33.62;101814.63;4994747;28;20033;-75
2021/06/30 07:42:45;;;;;;;23.90;10.23;;;;;;;25.81;33.81;101823.03;4995027;28;20029;-75
2021/06/30 07:45:11;;;;;;;11.05;7.00;;;;;;;25.95;33.51;101819.50;4995302;28;20054;-75
2021/06/30 07:47:37;;;;;;;8.15;6.57;;;;;;;26.15;32.85;101825.59;4993874;28;20038;-76
2021/06/30 07:50:05;;;;;;;9.75;7.70;;;;;;;26.09;33.25;101827.19;4994123;28;20029;-76
2021/06/30 07:52:31;;;;;;;14.48;11.30;;;;;;;26.16;32.81;101827.22;4995381;28;20922;-76
2021/06/30 07:54:57;;;;;;;9.55;7.22;;;;;;;26.29;32.74;101826.44;4996171;28;20038;-76
2021/06/30 07:57:22;;;;;;;19.05;10.75;;;;;;;26.30;32.43;101830.06;5008572;28;20030;-75
2021/06/30 07:59:48;;;;;;;31.85;12.90;;;;;;;26.45;32.22;101819.72;4997425;28;20510;-76
2021/06/30 08:02:14;;;;;;;9.43;7.15;;;;;;;26.53;32.24;101830.56;4999328;28;20029;-76
2021/06/30 08:04:39;;;;;;;9.65;6.43;;;;;;;26.59;32.22;101827.34;5000240;28;20396;-77
2021/06/30 08:07:05;;;;;;;8.40;7.13;;;;;;;26.70;32.00;101828.19;5013035;28;20115;-77
2021/06/30 08:09:35;;;;;;;8.25;7.10;;;;;;;26.79;32.09;101837.00;4999369;28;20049;-77
2021/06/30 08:12:02;;;;;;;;;;;;;;;26.71;32.08;101832.59;5000669;28;20461;-77
2021/06/30 08:14:28;;;;;;;8.50;7.05;;;;;;;26.90;31.75;101837.81;5000291;28;19921;-77
2021/06/30 08:16:54;;;;;;;13.07;7.88;;;;;;;26.87;31.87;101838.63;4992724;28;20100;-75
2021/06/30 08:19:20;;;;;;;8.57;6.28;;;;;;;26.84;31.93;101833.84;5010537;28;20500;-76
2021/06/30 08:21:45;;;;;;;7.90;6.10;;;;;;;26.79;31.47;101831.41;4999557;28;20040;-76
2021/06/30 08:24:11;;;;;;;15.40;7.63;;;;;;;26.69;31.95;101827.41;5011060;28;20369;-78
2021/06/30 08:26:37;;;;;;;13.93;10.82;;;;;;;26.78;31.79;101818.59;5016190;28;20538;-77
2021/06/30 08:29:04;;;;;;;17.00;13.35;;;;;;;27.00;31.24;101825.03;5016201;28;20030;-77
2021/06/30 08:31:29;;;;;;;16.38;7.88;;;;;;;26.75;31.70;101830.59;5015956;28;20048;-77
2021/06/30 08:33:56;;;;;;;14.30;7.72;;;;;;;26.96;31.36;101825.00;5023787;28;20026;-76
2021/06/30 08:36:22;;;;;;;11.15;6.47;;;;;;;27.06;30.98;101824.25;5035317;28;20123;-80
2021/06/30 08:38:48;;;;;;;12.00;8.27;;;;;;;27.04;31.29;101823.03;5035927;28;20032;-77
2021/06/30 08:41:17;;;;;;;9.75;7.93;;;;;;;27.13;31.18;101823.47;5035694;28;20547;-78
2021/06/30 08:43:42;;;;;;;7.72;6.55;;;;;;;27.05;30.98;101822.66;5035568;28;20040;-77
2021/06/30 08:46:08;;;;;;;10.07;6.75;;;;;;;27.16;31.28;101819.06;5017959;28;20030;-77
2021/06/30 08:48:37;;;;;;;8.98;6.35;;;;;;;27.29;31.01;101820.25;5035664;28;20033;-76
2021/06/30 08:51:03;;;;;;;10.18;6.50;;;;;;;27.43;31.12;101822.22;5035648;28;20021;-76
2021/06/30 08:53:32;;;;;;;24.75;11.10;;;;;;;27.48;31.20;101827.44;5035608;28;20029;-77
2021/06/30 08:55:58;;;;;;;9.48;7.18;;;;;;;27.52;31.01;101826.22;5005923;28;20026;-76
2021/06/30 08:58:24;;;;;;;16.73;7.57;;;;;;;27.51;30.91;101827.44;4998454;28;20033;-76
2021/06/30 09:00:50;;;;;;;26.88;8.75;;;;;;;27.56;31.16;101834.63;4999015;28;20033;-76
2021/06/30 09:03:17;;;;;;;12.73;6.32;;;;;;;27.65;30.78;101827.38;4997901;28;20029;-78
2021/06/30 09:08:20;;;;;;;12.52;8.05;;;;;;;27.95;30.17;101830.97;5013007;28;20045;-76
2021/06/30 09:10:45;;;;;;;9.88;6.75;;;;;;;27.90;30.51;101826.56;5015440;28;20025;-77
2021/06/30 09:13:25;;;;;;;12.60;8.60;;;;;;;27.85;30.06;101827.78;5015402;28;20548;-75
2021/06/30 09:16:01;;;;;;;9.45;6.80;;;;;;;28.18;29.96;101826.44;5015474;28;20109;-76
2021/06/30 09:18:34;;;;;;;15.90;7.30;;;;;;;28.18;30.29;101826.44;5015346;28;20499;-75
2021/06/30 09:21:22;;;;;;;11.57;7.53;;;;;;;28.37;29.82;101822.38;4995430;28;20034;-75
2021/06/30 09:24:01;;;;;;;10.18;6.95;;;;;;;28.54;29.82;101822.69;5015249;28;20026;-76
2021/06/30 09:26:28;;;;;;;16.55;8.55;;;;;;;28.59;29.61;101814.63;5015163;28;20030;-77
2021/06/30 09:29:02;;;;;;;16.05;12.70;;;;;;;28.56;29.42;101817.44;4997560;28;20034;-77
2021/06/30 09:31:28;;;;;;;16.05;10.77;;;;;;;28.74;29.40;101824.56;5015083;28;20025;-76
2021/06/30 09:33:55;;;;;;;14.38;10.63;;;;;;;28.77;29.00;101825.75;5013450;28;20153;-75
2021/06/30 09:36:23;;;;;;;12.98;9.85;;;;;;;28.78;29.10;101818.91;5014843;28;20646;-77
2021/06/30 09:38:49;;;;;;;16.55;10.45;;;;;;;29.07;28.78;101824.34;5014842;28;20108;-76
2021/06/30 09:41:27;;;;;;;14.73;9.70;;;;;;;29.04;28.77;101813.94;5014813;28;20177;-78
2021/06/30 09:44:07;;;;;;;17.08;10.93;;;;;;;29.16;28.62;101816.22;5014802;28;20022;-76
2021/06/30 09:46:35;;;;;;;12.25;10.10;;;;;;;29.37;28.58;101804.78;5014078;28;20071;-77
2021/06/30 09:49:05;;;;;;;12.25;9.48;;;;;;;29.50;28.40;101805.09;5014835;28;20422;-77
2021/06/30 09:51:31;;;;;;;17.80;10.38;;;;;;;29.60;28.12;101811.81;5017162;28;20026;-77
2021/06/30 09:54:15;;;;;;;13.60;11.32;;;;;;;29.76;28.16;101812.03;5022928;28;20056;-75
2021/06/30 09:56:54;;;;;;;14.45;10.27;;;;;;;30.01;28.17;101808.94;5008712;28;20113;-76
2021/06/30 09:59:25;;;;;;;13.20;10.85;;;;;;;30.10;27.98;101809.25;5032094;28;20017;-76
2021/06/30 10:01:54;;;;;;;16.98;11.38;;;;;;;30.08;28.21;101806.03;5014369;28;20033;-76
2021/06/30 10:04:31;;;;;;;13.45;10.57;;;;;;;30.28;27.67;101815.44;5012645;28;20520;-75
2021/06/30 10:06:59;;;;;;;14.25;10.05;;;;;;;30.25;27.54;101802.19;5014395;28;20515;-75
2021/06/30 10:09:25;;;;;;;16.58;13.60;;;;;;;30.34;27.42;101799.66;5014352;28;20028;-76
2021/06/30 10:12:00;;;;;;;17.75;13.18;;;;;;;30.08;27.63;101804.03;5014241;28;20112;-75
2021/06/30 10:14:26;;;;;;;14.00;9.07;;;;;;;30.26;27.41;101809.44;5014186;28;20022;-76
2021/06/30 10:16:52;;;;;;;18.45;11.52;;;;;;;30.43;27.02;101812.41;5014495;28;20034;-76
2021/06/30 10:19:19;;;;;;;17.30;11.35;;;;;;;30.47;27.41;101797.06;5007978;28;20080;-77
2021/06/30 10:21:45;;;;;;;13.30;11.50;;;;;;;30.57;26.64;101796.09;4997971;28;20065;-76
2021/06/30 10:24:14;;;;;;;18.20;11.27;;;;;;;30.63;26.54;101796.41;4997551;28;20022;-77
2021/06/30 10:26:39;;;;;;;15.68;11.00;;;;;;;30.78;26.32;101795.00;4998834;28;20034;-76
2021/06/30 10:29:05;;;;;;;16.23;10.30;;;;;;;30.90;26.58;101780.28;4997333;28;20507;-77
2021/06/30 10:31:36;;;;;;;13.65;11.10;;;;;;;30.88;26.90;101788.38;4998966;28;20021;-76
2021/06/30 10:34:03;;;;;;;13.00;10.73;;;;;;;30.85;26.88;101783.59;4997327;28;20045;-76
2021/06/30 10:36:58;;;;;;;20.33;11.18;;;;;;;31.02;26.76;101792.19;4995827;28;20069;-76
2021/06/30 10:39:35;;;;;;;15.80;10.07;;;;;;;31.07;27.06;101800.19;4979619;28;20034;-76
2021/06/30 10:42:21;;;;;;;15.45;11.25;;;;;;;31.11;26.55;101796.06;4996292;28;20119;-76
2021/06/30 10:44:53;;;;;;;14.40;11.48;;;;;;;31.20;26.17;101803.97;4985375;28;20045;-76
2021/06/30 10:47:38;;;;;;;15.10;10.02;;;;;;;31.27;25.98;101800.25;4996402;28;20059;-76
2021/06/30 10:50:23;;;;;;;12.63;9.80;;;;;;;31.16;27.15;101800.41;4996361;28;20084;-75
2021/06/30 10:52:48;;;;;;;12.23;9.35;;;;;;;31.55;26.39;101802.53;4994781;28;20056;-77
2021/06/30 10:58:18;;;;;;;9.77;8.77;;;;;;;31.38;26.24;101809.34;4997106;28;20092;-75
2021/06/30 11:00:52;;;;;;;11.90;8.77;;;;;;;31.14;26.79;101811.34;4996646;28;20555;-75
2021/06/30 11:04:01;;;;;;;10.93;9.07;;;;;;;30.97;26.58;101806.78;4996420;28;20041;-76
2021/06/30 11:06:30;;;;;;;12.52;8.75;;;;;;;31.04;26.63;101801.03;4996512;28;20030;-77
2021/06/30 11:09:08;;;;;;;15.57;9.43;;;;;;;31.06;26.73;101810.69;4996663;28;20164;-76
2021/06/30 11:11:34;;;;;;;9.98;7.80;;;;;;;31.19;26.37;101810.84;4995050;28;20549;-77
2021/06/30 11:14:09;;;;;;;8.82;7.55;;;;;;;31.24;26.56;101807.56;4994446;28;20026;-76
2021/06/30 11:19:04;;;;;;;9.88;8.40;;;;;;;31.30;26.77;101813.53;4997572;28;20026;-77
2021/06/30 11:21:53;;;;;;;14.55;8.43;;;;;;;31.27;26.79;101817.97;4997130;28;20037;-77
2021/06/30 11:24:34;;;;;;;8.77;7.53;;;;;;;31.12;27.00;101813.78;4995530;28;20040;-77
2021/06/30 11:27:28;;;;;;;12.40;8.07;;;;;;;31.03;26.77;101822.81;4995214;28;20026;-77